createdAt,value
2023-02-01T00:00:53.635Z,24.51
2023-02-01T00:06:00.811Z,24.62
2023-02-01T00:11:08.004Z,24.64
2023-02-01T00:16:15.257Z,24.70
2023-02-01T00:21:22.470Z,24.72
2023-02-01T00:26:29.787Z,24.75
2023-02-01T00:31:36.960Z,24.83
2023-02-01T00:36:44.087Z,24.87
2023-02-01T00:41:51.319Z,24.93
2023-02-01T00:46:58.568Z,24.96
2023-02-01T00:52:05.942Z,25.01
2023-02-01T00:57:13.143Z,25.06
2023-02-01T01:02:20.370Z,25.15
2023-02-01T01:07:27.644Z,25.20
2023-02-01T01:12:34.794Z,25.21
2023-02-01T01:17:41.984Z,25.25
2023-02-01T01:22:49.254Z,25.28
2023-02-01T01:27:56.475Z,25.31
2023-02-01T01:33:03.694Z,25.38
2023-02-01T01:38:10.868Z,25.42
2023-02-01T01:43:18.047Z,25.48
2023-02-01T01:48:25.320Z,25.51
2023-02-01T01:53:32.580Z,25.54
2023-02-01T01:58:39.948Z,25.54
2023-02-01T02:03:47.142Z,25.58
2023-02-01T02:08:54.364Z,25.54
2023-02-01T02:14:01.567Z,25.58
2023-02-01T02:19:08.683Z,25.40
2023-02-01T02:24:15.896Z,25.48
2023-02-01T02:29:23.073Z,25.16
2023-02-01T02:34:30.283Z,25.42
2023-02-01T02:39:37.470Z,25.48
2023-02-01T02:44:44.616Z,25.40
2023-02-01T02:49:51.796Z,25.38
2023-02-01T02:54:59.110Z,25.31
2023-02-01T03:00:06.275Z,25.42
2023-02-01T03:05:13.510Z,25.50
2023-02-01T03:10:21.100Z,25.59
2023-02-01T03:15:27.996Z,25.61
2023-02-01T03:20:35.210Z,25.64
2023-02-01T03:25:42.407Z,25.72
2023-02-01T03:30:49.612Z,25.74
2023-02-01T03:35:56.758Z,25.76
2023-02-01T03:41:03.985Z,25.79
2023-02-01T03:46:11.318Z,25.86
2023-02-01T03:51:18.434Z,25.77
2023-02-01T03:56:25.641Z,25.97
2023-02-01T04:01:32.882Z,25.89
2023-02-01T04:06:39.989Z,25.99
2023-02-01T04:11:47.223Z,26.08
2023-02-01T04:16:55.242Z,25.96
2023-02-01T04:22:02.450Z,26.14
2023-02-01T04:27:09.695Z,26.15
2023-02-01T04:32:16.952Z,26.09
2023-02-01T04:37:24.206Z,26.30
2023-02-01T04:42:32.092Z,26.27
2023-02-01T04:47:39.289Z,26.32
2023-02-01T04:52:46.499Z,26.45
2023-02-01T04:57:53.799Z,26.48
2023-02-01T05:03:01.049Z,26.48
2023-02-01T05:08:08.229Z,26.41
2023-02-01T05:13:15.410Z,26.51
2023-02-01T05:18:22.568Z,26.39
2023-02-01T05:23:29.770Z,26.33
2023-02-01T05:28:36.984Z,26.31
2023-02-01T05:33:44.101Z,26.29
2023-02-01T05:38:51.319Z,26.31
2023-02-01T05:43:58.540Z,26.31
2023-02-01T05:49:05.734Z,26.29
2023-02-01T05:54:12.875Z,26.25
2023-02-01T05:59:20.307Z,26.23
2023-02-01T06:04:27.412Z,26.29
2023-02-01T06:09:34.574Z,26.27
2023-02-01T06:14:41.830Z,26.30
2023-02-01T06:19:48.953Z,26.30
2023-02-01T06:24:56.157Z,26.31
2023-02-01T06:30:03.399Z,26.18
2023-02-01T06:35:10.537Z,26.44
2023-02-01T06:40:17.751Z,26.58
2023-02-01T06:45:24.938Z,26.60
2023-02-01T06:50:32.149Z,26.62
2023-02-01T06:55:39.394Z,26.60
2023-02-01T07:00:46.705Z,26.52
2023-02-01T07:05:53.852Z,26.53
2023-02-01T07:11:01.113Z,26.49
2023-02-01T07:16:08.502Z,26.53
2023-02-01T07:21:15.600Z,26.50
2023-02-01T07:26:22.876Z,26.49
2023-02-01T07:31:30.043Z,26.37
2023-02-01T07:36:37.148Z,26.30
2023-02-01T07:41:44.310Z,26.25
2023-02-01T07:46:51.553Z,26.20
2023-02-01T07:51:58.817Z,26.09
2023-02-01T07:57:06.021Z,25.82
2023-02-01T08:02:13.669Z,26.02
2023-02-01T08:07:20.799Z,26.05
2023-02-01T08:12:28.046Z,26.13
2023-02-01T08:17:35.312Z,26.19
2023-02-01T08:22:42.507Z,26.29
2023-02-01T08:27:49.717Z,26.47
2023-02-01T08:32:56.902Z,26.40
2023-02-01T08:38:04.068Z,26.34
2023-02-01T08:43:11.235Z,26.57
2023-02-01T08:48:18.460Z,26.45
2023-02-01T08:53:25.861Z,26.50
2023-02-01T08:58:33.085Z,26.68
2023-02-01T09:03:40.398Z,27.05
2023-02-01T09:08:47.669Z,26.96
2023-02-01T09:13:54.871Z,26.73
2023-02-01T09:19:24.575Z,26.66
2023-02-01T09:24:09.226Z,26.51
2023-02-01T09:29:16.418Z,26.39
2023-02-01T09:34:23.618Z,26.33
2023-02-01T09:39:30.785Z,26.36
2023-02-01T09:44:43.714Z,26.27
2023-02-01T09:49:45.169Z,26.23
2023-02-01T09:54:52.352Z,26.17
2023-02-01T09:59:59.532Z,26.10
2023-02-01T10:05:06.721Z,26.04
2023-02-01T10:10:13.919Z,25.99
2023-02-01T10:15:21.541Z,25.93
2023-02-01T10:20:28.285Z,25.89
2023-02-01T10:25:35.442Z,25.82
2023-02-01T10:30:42.680Z,25.81
2023-02-01T10:35:50.050Z,25.79
2023-02-01T10:40:57.204Z,25.75
2023-02-01T10:46:04.464Z,25.81
2023-02-01T10:51:11.708Z,25.75
2023-02-01T10:56:18.923Z,25.76
2023-02-01T11:01:26.223Z,25.74
2023-02-01T11:06:33.363Z,25.72
2023-02-01T11:11:40.530Z,25.70
2023-02-01T11:16:47.763Z,25.67
2023-02-01T11:21:55.035Z,25.67
2023-02-01T11:27:02.261Z,25.66
2023-02-01T11:32:09.474Z,25.63
2023-02-01T11:37:16.764Z,25.63
2023-02-01T11:42:23.984Z,25.69
2023-02-01T11:47:31.219Z,25.76
2023-02-01T11:52:38.683Z,25.76
2023-02-01T11:57:45.782Z,25.84
2023-02-01T12:02:53.080Z,25.86
2023-02-01T12:08:00.292Z,25.89
2023-02-01T12:13:07.472Z,25.89
2023-02-01T12:18:14.605Z,25.92
2023-02-01T12:23:22.115Z,25.97
2023-02-01T12:28:29.296Z,25.93
2023-02-01T12:33:36.459Z,25.96
2023-02-01T12:38:43.687Z,26.04
2023-02-01T12:43:50.921Z,26.09
2023-02-01T12:48:58.117Z,26.09
2023-02-01T12:54:05.341Z,26.16
2023-02-01T12:59:12.491Z,26.18
2023-02-01T13:04:19.668Z,26.23
2023-02-01T13:09:26.818Z,26.17
2023-02-01T13:14:34.040Z,26.24
2023-02-01T13:19:41.215Z,26.27
2023-02-01T13:24:48.459Z,26.29
2023-02-01T13:29:55.656Z,26.27
2023-02-01T13:35:02.878Z,26.29
2023-02-01T13:40:10.100Z,26.35
2023-02-01T13:45:17.269Z,26.29
2023-02-01T13:50:24.440Z,26.31
2023-02-01T13:55:31.712Z,26.35
2023-02-01T14:00:38.802Z,26.36
2023-02-01T14:05:45.974Z,26.37
2023-02-01T14:10:53.167Z,26.48
2023-02-01T14:16:00.398Z,26.48
2023-02-01T14:21:15.475Z,26.50
2023-02-01T14:26:14.864Z,26.50
2023-02-01T14:31:22.179Z,26.52
2023-02-01T14:36:29.206Z,26.57
2023-02-01T14:41:36.452Z,26.56
2023-02-01T14:46:43.609Z,26.54
2023-02-01T14:51:50.826Z,26.61
2023-02-01T14:56:58.071Z,26.64
2023-02-01T15:02:05.221Z,26.59
2023-02-01T15:07:12.405Z,26.59
2023-02-01T15:12:19.657Z,26.50
2023-02-01T15:17:26.875Z,26.51
2023-02-01T15:22:34.142Z,26.46
2023-02-01T15:27:41.364Z,26.57
2023-02-01T15:32:48.528Z,26.56
2023-02-01T15:37:55.727Z,26.52
2023-02-01T15:43:02.928Z,26.59
2023-02-01T15:48:10.077Z,26.61
2023-02-01T15:53:17.260Z,26.64
2023-02-01T15:58:24.476Z,26.64
2023-02-01T16:03:31.726Z,26.68
2023-02-01T16:08:38.911Z,26.66
2023-02-01T16:13:46.121Z,26.75
2023-02-01T16:18:53.299Z,26.70
2023-02-01T16:24:00.488Z,26.73
2023-02-01T16:29:07.679Z,26.73
2023-02-01T16:34:14.843Z,26.71
2023-02-01T16:39:22.129Z,26.72
2023-02-01T16:44:29.649Z,26.76
2023-02-01T16:49:37.015Z,26.74
2023-02-01T16:54:44.201Z,26.73
2023-02-01T16:59:52.151Z,26.75
2023-02-01T17:04:58.895Z,26.79
2023-02-01T17:10:06.463Z,26.77
2023-02-01T17:15:13.827Z,26.76
2023-02-01T17:20:21.032Z,26.72
2023-02-01T17:25:28.316Z,26.75
2023-02-01T17:30:35.995Z,26.71
2023-02-01T17:35:43.322Z,26.75
2023-02-01T17:40:50.619Z,26.80
2023-02-01T17:45:58.316Z,26.78
2023-02-01T17:51:06.367Z,26.77
2023-02-01T17:56:13.513Z,26.85
2023-02-01T18:01:21.022Z,26.86
2023-02-01T18:06:28.408Z,26.86
2023-02-01T18:11:35.711Z,26.80
2023-02-01T18:16:43.283Z,26.93
2023-02-01T18:21:50.928Z,27.64
2023-02-01T18:26:58.248Z,27.16
2023-02-01T18:32:06.245Z,27.14
2023-02-01T18:37:14.574Z,26.83
2023-02-01T18:42:22.305Z,26.67
2023-02-01T18:47:29.929Z,26.34
2023-02-01T18:52:37.511Z,26.23
2023-02-01T18:57:44.848Z,25.98
2023-02-01T19:02:52.366Z,25.81
2023-02-01T19:07:59.542Z,25.74
2023-02-01T19:13:07.158Z,25.45
2023-02-01T19:18:14.647Z,25.40
2023-02-01T19:23:22.605Z,25.22
2023-02-01T19:28:30.102Z,25.14
2023-02-01T19:33:37.745Z,24.97
2023-02-01T19:38:45.332Z,24.92
2023-02-01T19:43:52.858Z,25.55
2023-02-01T19:49:00.209Z,25.45
2023-02-01T19:54:08.172Z,25.80
2023-02-01T19:59:15.694Z,25.88
2023-02-01T20:04:22.563Z,26.09
2023-02-01T20:09:30.078Z,26.01
2023-02-01T20:14:37.367Z,26.07
2023-02-01T20:19:44.909Z,25.98
2023-02-01T20:24:52.500Z,25.94
2023-02-01T20:30:01.105Z,25.91
2023-02-01T20:35:08.662Z,25.94
2023-02-01T20:40:15.978Z,25.98
2023-02-01T20:45:23.642Z,25.64
2023-02-01T20:50:31.058Z,25.64
2023-02-01T20:55:38.408Z,25.70
2023-02-01T21:00:45.895Z,25.55
2023-02-01T21:05:54.432Z,25.44
2023-02-01T21:11:01.618Z,25.46
2023-02-01T21:16:10.580Z,25.48
2023-02-01T21:21:18.051Z,25.49
2023-02-01T21:26:25.311Z,25.41
2023-02-01T21:31:32.490Z,25.35
2023-02-01T21:36:40.115Z,25.38
2023-02-01T21:41:47.553Z,25.37
2023-02-01T21:46:54.724Z,25.32
2023-02-01T21:52:01.933Z,25.27
2023-02-01T21:57:09.089Z,25.17
2023-02-01T22:02:16.344Z,25.05
2023-02-01T22:07:23.477Z,25.12
2023-02-01T22:12:30.628Z,25.08
2023-02-01T22:17:37.821Z,24.96
2023-02-01T22:22:45.017Z,24.97
2023-02-01T22:28:33.039Z,24.86
2023-02-01T22:32:59.364Z,24.93
2023-02-01T22:38:06.614Z,24.92
2023-02-01T22:43:13.739Z,24.84
2023-02-01T22:48:20.920Z,24.75
2023-02-01T22:53:28.106Z,24.81
2023-02-01T22:58:35.321Z,24.84
2023-02-01T23:03:42.588Z,24.74
2023-02-01T23:08:49.770Z,24.73
2023-02-01T23:13:56.930Z,24.80
2023-02-01T23:19:04.178Z,24.87
2023-02-01T23:24:11.411Z,24.76
2023-02-01T23:29:18.623Z,24.70
2023-02-01T23:34:25.859Z,24.64
2023-02-01T23:39:33.051Z,24.80
2023-02-01T23:44:40.210Z,24.78
2023-02-01T23:49:47.418Z,24.79
2023-02-01T23:54:54.631Z,24.86
